createdAt,value
2023-03-23T16:02:23.522Z,100985.88
2023-03-23T16:07:25.065Z,100977.41
2023-03-23T16:12:23.951Z,100975.94
2023-03-23T16:17:24.274Z,100982.34
2023-03-23T16:22:23.100Z,100990.56
2023-03-23T16:27:23.741Z,100999.50
2023-03-23T16:32:24.428Z,100998.44
2023-03-23T16:37:25.952Z,101009.66
2023-03-23T16:42:24.855Z,101004.44
2023-03-23T16:47:25.676Z,101006.78
2023-03-23T16:52:24.545Z,101011.47
2023-03-23T16:57:23.494Z,101009.34
2023-03-23T17:02:22.205Z,101011.31
2023-03-23T17:07:22.377Z,101013.81
2023-03-23T17:12:22.280Z,101018.69
2023-03-23T17:17:22.406Z,101023.50
2023-03-23T17:22:22.754Z,101021.06
2023-03-23T17:27:23.051Z,101024.81
2023-03-23T17:32:29.690Z,101031.19
2023-03-23T17:37:29.901Z,101038.44
2023-03-23T17:42:29.097Z,101047.44
2023-03-23T17:47:28.126Z,101044.19
2023-03-23T17:52:27.542Z,101049.69
2023-03-23T17:57:30.691Z,101048.16
2023-03-23T18:02:29.550Z,101050.97
2023-03-23T18:07:29.180Z,101063.34
2023-03-23T18:12:30.422Z,101067.72
2023-03-23T18:17:29.286Z,101076.44
2023-03-23T18:22:28.075Z,101086.25
2023-03-23T18:27:27.254Z,101094.38
2023-03-23T18:32:29.658Z,101090.75
2023-03-23T18:37:28.610Z,101100.81
2023-03-23T18:42:28.052Z,101102.09
2023-03-23T18:47:35.629Z,101108.09
2023-03-23T18:52:34.512Z,101109.44
2023-03-23T18:57:33.259Z,101116.13
2023-03-23T19:02:33.640Z,101108.78
2023-03-23T19:07:32.794Z,101117.13
2023-03-23T19:12:32.155Z,101108.81
2023-03-23T19:17:30.975Z,101113.75
2023-03-23T19:22:31.417Z,101125.13
2023-03-23T19:27:31.367Z,101119.09
2023-03-23T19:32:30.513Z,101128.38
2023-03-23T19:37:34.511Z,101123.09
2023-03-23T19:42:35.547Z,101124.88
2023-03-23T19:47:34.736Z,101110.59
2023-03-23T19:52:33.502Z,101115.69
2023-03-23T19:57:32.666Z,101118.41
2023-03-23T20:02:35.399Z,101121.34
2023-03-23T20:07:35.073Z,101120.97
2023-03-23T20:12:33.988Z,101125.13
2023-03-23T20:17:34.424Z,101125.13
2023-03-23T20:22:33.269Z,101114.75
2023-03-23T20:27:32.415Z,101117.66
2023-03-23T20:32:40.825Z,101108.97
2023-03-23T20:37:41.195Z,101113.56
2023-03-23T20:42:44.000Z,101124.50
2023-03-23T20:47:44.082Z,101115.81
2023-03-23T20:52:42.772Z,101115.75
2023-03-23T20:57:42.267Z,101105.63
2023-03-23T21:02:42.333Z,101103.44
2023-03-23T21:07:42.953Z,101102.94
2023-03-23T21:12:41.682Z,101110.19
2023-03-23T21:17:40.692Z,101101.41
2023-03-23T21:22:39.653Z,101100.66
2023-03-23T21:27:39.876Z,101100.75
2023-03-23T21:32:38.641Z,101107.13
2023-03-23T21:37:37.889Z,101105.72
2023-03-23T21:42:36.571Z,101095.66
2023-03-23T21:47:37.872Z,101096.00
2023-03-23T21:52:37.228Z,101093.63
2023-03-23T21:57:37.072Z,101086.81
2023-03-23T22:02:46.759Z,101083.56
2023-03-23T22:07:46.666Z,101079.09
2023-03-23T22:12:45.786Z,101074.66
2023-03-23T22:17:46.324Z,101077.28
2023-03-23T22:22:45.278Z,101068.66
2023-03-23T22:27:44.990Z,101087.84
2023-03-23T22:32:45.378Z,101077.94
2023-03-23T22:37:44.344Z,101072.66
2023-03-23T22:42:43.284Z,101075.94
2023-03-23T22:47:42.198Z,101073.28
2023-03-23T22:52:42.552Z,101071.66
2023-03-23T22:57:41.529Z,101086.13
2023-03-23T23:02:40.594Z,101075.91
2023-03-23T23:07:40.254Z,101092.56
2023-03-23T23:12:42.544Z,101082.59
2023-03-23T23:17:41.643Z,101087.44
2023-03-23T23:22:43.677Z,101084.00
2023-03-23T23:27:44.737Z,101086.56
2023-03-23T23:32:44.824Z,101088.09
2023-03-23T23:37:43.744Z,101078.72
2023-03-23T23:42:46.425Z,101076.03
2023-03-23T23:47:45.832Z,101071.75
2023-03-23T23:52:45.291Z,101075.50
2023-03-23T23:57:46.542Z,101073.09
